Down Up Stop Top

TXC259
There are no active watches, warnings or advisories

Record high temperature 126.3°F Record low temperature 13.3°F Record high gust 49.5 mph Record high average 32.4 mph Record daily rain 4.23 in. Record low windchill 4.3°F Record high barometer 30.637 in. Record low barometer 28.496 in.
Daily high pressure 30.224 in. Daily low pressure 30.106 in. Daily low windchill 43.5°F Daily high heat index 58.5°F Daily high gust speed 12.3 mph E Daily high average speed 9.2 mph E
Welfare-Texas Weather
LAST READING AT TIME: 14:05 DATE: December 20 2014, time of next update: 14:10
Current WeatherDry Current Temperature 58.3°F (14.6°C), Apparent temp 52.1°F
Maximum Temperature (since midnight)58.5°F at: 14:00 Minimum Temperature (since midnight)46.8°F at: 03:03
Average windspeed (ten minute)4.1 mph Wind Direction (ten minute)NNE (19°)
Windchill Temperature 58.3°F Maximum Gust (last hour)10.7 mph at: 14:02
Maximum Gust (since midnight)12.3 mph at: 13:01 Maximum 1 minute average (since midnight)9.2 mph at: 13:02
Rainfall (last hour)0.00 in. (0.0 mm) Rainfall (since midnight)0.00 in. (0.0 mm) ---
Rainfall This month 0.00 in. (0.0 mm) Rainfall To date this year 4.57 in. (116.0 mm)
Maximum rain per minute (last hour)0.00 in/min Maximum rain per hour (last 6 hours)0.00 in/hour
Yesterdays rainfall 0.00 in DewPoint 5.8°F (Wet Bulb :42.2°F )
Humidity 12 %, Humidex 50.3°F Barometer corrected to msl30.106 in. (1019.5 hPa)
Pressure change -0.03 in. (last hour) Trend (last hour)STEADY
Pressure change (last 12 hours)-0.06 in Pressure change (last 6 hours)-0.12 in

This page is updated from recent data collected by a WMR200 weather station Use the Reload or Refresh facility on your browser to retrieve the latest data.


Click here for the last 24 hour graph
Click here for the last 48 hour graph
Click here for the last 72 hour graph
Click here for the month to date graph


Weather report/warning/Metars

SAN ANTONIO INTERNATIONAL  AIRPORT , TX, United States (KSAT) 29-32N 098-28W 243M
Dec 20, 2014 - 01:51 PM EST / 2014.12.20 1851 UTC
Wind: from the N (010 degrees) at 12 MPH (10 KT):0
Visibility: 10 mile(s):0
Sky conditions: mostly clear
Temperature: 55.9 F (13.3 C)
Dew Point: 44.1 F (6.7 C)
Relative Humidity: 64%
Pressure (altimeter): 30.17 in. Hg (1021 hPa)
ob: KSAT 201851Z 01010KT 10SM FEW020 FEW080 13/07 A3017 RMK AO2 SLP207 T01330067
cycle: 19
NEW BRAUNFELS MUNICIPAL AIRPORT, TX, United States (KBAZ) 29-43N 98-03W 195M
Dec 20, 2014 - 02:51 PM EST / 2014.12.20 1951 UTC
Wind: from the NE (050 degrees) at 13 MPH (11 KT):0
Visibility: 10 mile(s):0
Sky conditions: overcast
Temperature: 55.9 F (13.3 C)
Dew Point: 45.0 F (7.2 C)
Relative Humidity: 66%
Pressure (altimeter): 30.15 in. Hg (1020 hPa)
ob: KBAZ 201951Z 05011KT 10SM OVC020 13/07 A3015 RMK AO2 SLP208 T01330072
cycle: 20
Kerrville, Kerrville Municipal Airport/Louis Schreiner Field, TX, United States (KERV) 29-58N 099-05W
Dec 20, 2014 - 02:35 PM EST / 2014.12.20 1935 UTC
Wind: from the NNE (030 degrees) at 5 MPH (4 KT):0
Visibility: 10 mile(s):0
Sky conditions: partly cloudy
Temperature: 56.3 F (13.5 C)
Dew Point: 43.7 F (6.5 C)
Relative Humidity: 62%
Pressure (altimeter): 30.15 in. Hg (1020 hPa)
ob: KERV 201935Z AUTO 03004KT 10SM SCT120 14/07 A3015 RMK AO2 T01350065
cycle: 19
BANGOR INT'L AIRPORT, ME, United States (KBGR) 44-48N 068-49W 57M
Dec 20, 2014 - 02:53 PM EST / 2014.12.20 1953 UTC
Wind: from the N (360 degrees) at 10 MPH (9 KT):0
Visibility: 10 mile(s):0
Sky conditions: overcast
Temperature: 23.0 F (-5.0 C)
Windchill: 12 F (-11 C):1
Dew Point: 18.0 F (-7.8 C)
Relative Humidity: 80%
Pressure (altimeter): 30.33 in. Hg (1027 hPa)
ob: KBGR 201953Z 36009KT 10SM OVC014 M05/M08 A3033 RMK AO2 SLP273 T10501078
cycle: 20



The data is logged at two minute intervals, but there is data recorded every minute.

Use the RELOAD facility on your browser to retrieve the latest data.

Click here for a daily update of the averages/extremes to date for the month


Created by "Weather Display" software version 10.37R Build 23 at this start time/date 06:34 6/14/2014